Metar z połowy godziny Komunikat METAR ze strony awiacja.imgw.pl Metar G30 EPGD METAR EPGD 240430Z 19015KT 4000 BR OVC005 M01/M01 Q1016 R11/190095 =